Time;durP1;ratioP1;P1;durP2;ratioP2;P2;SDS_P1;SDS_P2;PMS_P1;PMS_P2;Temp;Humidity;BMP_temperature;BMP_pressure;BME280_temperature;BME280_humidity;BME280_pressure;Samples;Min_cycle;Max_cycle;Signal;HPM_P1;HPM_P2
2022/06/16 00:03:17;;;;;;;;;;;;;;;23.42;41.76;100063.59;10368881;28;19932;-62
2022/06/16 00:08:18;;;;;;;;;;;;;;;23.34;41.09;100075.53;10369021;28;20063;-61
2022/06/16 00:13:20;;;;;;;;;;;;;;;23.39;41.44;100073.03;10368425;28;19936;-62
2022/06/16 00:18:21;;;;;;;;;;;;;;;23.40;41.12;100062.97;10368695;28;19956;-62
2022/06/16 00:23:22;;;;;;;;;;;;;;;23.38;41.41;100043.38;10370024;28;19929;-62
2022/06/16 00:28:24;;;;;;;;;;;;;;;23.33;41.52;100033.16;10379198;28;20506;-62
2022/06/16 00:33:25;;;;;;;;;;;;;;;23.29;41.00;100040.03;10379232;28;19929;-62
2022/06/16 00:38:27;;;;;;;;;;;;;;;23.14;41.89;100043.00;10380389;28;20034;-62
2022/06/16 00:43:28;;;;;;;;;;;;;;;23.12;41.56;100047.81;10377291;28;20000;-62
2022/06/16 00:48:48;;;;;;;;;;;;;;;23.08;41.74;100035.66;10377590;28;19925;-62
2022/06/16 00:53:49;;;;;;;;;;;;;;;23.04;41.82;100026.25;10376620;28;19935;-63
2022/06/16 00:58:53;;;;;;;;;;;;;;;23.02;41.66;100022.94;10377339;28;20031;-62
2022/06/16 01:09:17;;;;;;;;;;;;;;;22.90;41.78;100020.03;10376133;28;19925;-63
2022/06/16 01:14:30;;;;;;;;;;;;;;;22.85;41.90;100022.50;10376566;28;20028;-62
2022/06/16 01:19:34;;;;;;;;;;;;;;;22.79;41.99;100026.91;10375445;28;19929;-63
2022/06/16 01:24:35;;;;;;;;;;;;;;;22.74;42.02;100026.69;10375918;28;20012;-62
2022/06/16 01:29:36;;;;;;;;;;;;;;;22.69;42.05;100030.03;10375444;28;19948;-62
2022/06/16 01:34:40;;;;;;;;;;;;;;;22.65;41.88;100028.78;10375587;28;19929;-62
2022/06/16 01:40:08;;;;;;;;;;;;;;;22.41;42.54;100027.50;10374731;28;19933;-62
2022/06/16 01:45:16;;;;;;;;;;;;;;;22.32;42.87;100026.03;10374558;28;19936;-61
2022/06/16 01:50:20;;;;;;;;;;;;;;;22.37;42.95;100026.28;10375200;28;19925;-61
2022/06/16 01:55:24;;;;;;;;;;;;;;;22.38;42.60;100044.19;10373182;28;20020;-61
2022/06/16 02:00:26;;;;;;;;;;;;;;;22.31;43.33;100043.31;10378712;28;19926;-62
2022/06/16 02:05:32;;;;;;;;;;;;;;;22.24;42.67;100041.44;10379195;28;20168;-59
2022/06/16 02:10:35;;;;;;;;;;;;;;;22.12;43.30;100048.50;10375521;28;20317;-62
2022/06/16 02:15:43;;;;;;;;;;;;;;;22.17;43.45;100054.16;10374634;28;20027;-62
2022/06/16 02:20:44;;;;;;;;;;;;;;;22.11;43.54;100049.53;10371619;28;20431;-62
2022/06/16 02:25:47;;;;;;;;;;;;;;;22.00;43.92;100053.66;10372852;28;20012;-62
2022/06/16 02:30:48;;;;;;;;;;;;;;;21.85;43.61;100056.53;10373031;28;19944;-62
2022/06/16 02:35:54;;;;;;;;;;;;;;;21.81;44.16;100052.56;10372460;28;19929;-62
2022/06/16 02:41:04;;;;;;;;;;;;;;;21.89;44.46;100056.97;10372968;28;20037;-62
2022/06/16 02:46:09;;;;;;;;;;;;;;;21.83;44.38;100058.63;10373137;28;19936;-61
2022/06/16 02:51:14;;;;;;;;;;;;;;;21.75;44.78;100057.94;10371013;28;20087;-61
2022/06/16 02:56:21;;;;;;;;;;;;;;;21.70;44.38;100063.97;10372477;28;19940;-63
2022/06/16 03:01:23;;;;;;;;;;;;;;;21.60;44.67;100068.91;10371038;28;19935;-62
2022/06/16 03:06:25;;;;;;;;;;;;;;;21.63;44.62;100068.50;10370736;28;19936;-62
2022/06/16 03:11:26;;;;;;;;;;;;;;;21.63;44.69;100065.81;10370118;28;19929;-62
2022/06/16 03:16:27;;;;;;;;;;;;;;;21.65;44.69;100066.47;10371474;28;20299;-62
2022/06/16 03:21:29;;;;;;;;;;;;;;;21.67;44.41;100070.63;10370203;28;19936;-62
2022/06/16 03:26:30;;;;;;;;;;;;;;;21.57;44.63;100072.03;10370903;28;19935;-62
2022/06/16 03:31:31;;;;;;;;;;;;;;;21.53;44.77;100068.91;10370599;28;20016;-62
2022/06/16 03:36:33;;;;;;;;;;;;;;;21.57;44.53;100082.84;10371656;28;19932;-63
2022/06/16 03:41:35;;;;;;;;;;;;;;;21.54;43.90;100087.66;10370208;28;19925;-64
2022/06/16 03:46:36;;;;;;;;;;;;;;;21.49;44.51;100090.06;10371260;28;19955;-62
2022/06/16 03:51:38;;;;;;;;;;;;;;;21.54;44.48;100089.50;10368422;28;19933;-63
2022/06/16 03:56:41;;;;;;;;;;;;;;;21.59;44.24;100083.47;10370269;28;19929;-61
2022/06/16 04:01:43;;;;;;;;;;;;;;;21.58;44.17;100095.38;10375861;28;19936;-63
2022/06/16 04:06:44;;;;;;;;;;;;;;;21.56;44.27;100089.31;10368604;28;19936;-62
2022/06/16 04:11:45;;;;;;;;;;;;;;;21.55;44.45;100096.59;10377379;28;20851;-60
2022/06/16 04:16:49;;;;;;;;;;;;;;;21.52;44.05;100105.94;10374945;28;20412;-63
2022/06/16 04:21:52;;;;;;;;;;;;;;;21.36;44.52;100114.34;10353849;28;20058;-62
2022/06/16 04:26:54;;;;;;;;;;;;;;;21.31;44.51;100133.06;10373910;28;19933;-63
2022/06/16 04:31:55;;;;;;;;;;;;;;;21.09;45.03;100143.94;10371103;28;20323;-64
2022/06/16 04:36:56;;;;;;;;;;;;;;;21.25;44.71;100144.69;10362983;28;19940;-62
2022/06/16 04:41:58;;;;;;;;;;;;;;;21.37;45.44;100134.97;10358092;28;19936;-64
2022/06/16 04:47:02;;;;;;;;;;;;;;;21.35;44.89;100151.44;10361468;28;19935;-62
2022/06/16 04:52:04;;;;;;;;;;;;;;;21.36;45.01;100144.13;10358969;28;20057;-64
2022/06/16 04:57:05;;;;;;;;;;;;;;;21.37;45.18;100157.47;10358986;28;20033;-63
2022/06/16 05:02:06;;;;;;;;;;;;;;;21.52;45.31;100146.56;10355795;28;19933;-63
2022/06/16 05:07:09;;;;;;;;;;;;;;;21.49;44.99;100152.34;10351315;28;20439;-62
2022/06/16 05:12:10;;;;;;;;;;;;;;;21.44;45.47;100170.22;10393639;28;19932;-61
2022/06/16 05:17:12;;;;;;;;;;;;;;;21.38;45.87;100158.31;10382413;28;20255;-60
2022/06/16 05:22:14;;;;;;;;;;;;;;;21.49;45.00;100168.59;10360438;28;20336;-63
2022/06/16 05:27:15;;;;;;;;;;;;;;;21.65;44.77;100163.97;10361588;28;19943;-61
2022/06/16 05:32:17;;;;;;;;;;;;;;;21.64;45.89;100173.13;10353905;28;19936;-62
2022/06/16 05:37:19;;;;;;;;;;;;;;;21.87;44.63;100187.22;10352632;28;19990;-61
2022/06/16 05:42:20;;;;;;;;;;;;;;;21.66;44.63;100169.19;10352744;28;19929;-61
2022/06/16 05:47:21;;;;;;;;;;;;;;;21.84;44.39;100195.75;10354752;28;19929;-62
2022/06/16 05:52:23;;;;;;;;;;;;;;;21.76;44.46;100195.91;10353539;28;20282;-61
2022/06/16 05:57:24;;;;;;;;;;;;;;;21.68;44.64;100175.22;10355384;28;20308;-63
2022/06/16 06:02:25;;;;;;;;;;;;;;;21.97;44.70;100207.72;10369091;28;19928;-63
2022/06/16 06:16:25;;;;;;;;;;;;;;;22.08;44.65;100217.97;10363897;28;19929;-62
2022/06/16 06:18:08;;;;;;;;;;;;;;;22.14;45.16;100229.91;10356171;28;19937;-62
2022/06/16 06:23:10;;;;;;;;;;;;;;;22.04;44.77;100235.69;10353700;28;19936;-62
2022/06/16 06:28:17;;;;;;;;;;;;;;;21.91;44.83;100244.56;10371981;28;21881;-62
2022/06/16 06:33:18;;;;;;;;;;;;;;;22.13;44.50;100242.63;10353383;28;19935;-62
2022/06/16 06:38:20;;;;;;;;;;;;;;;22.21;44.62;100258.72;10372463;28;19939;-63
2022/06/16 06:43:21;;;;;;;;;;;;;;;22.27;44.73;100258.97;10373199;28;20503;-62
2022/06/16 06:48:22;;;;;;;;;;;;;;;22.47;44.84;100262.63;10369014;28;20405;-63
2022/06/16 06:53:24;;;;;;;;;;;;;;;22.64;44.53;100267.69;10368469;28;19983;-63
2022/06/16 06:58:25;;;;;;;;;;;;;;;22.94;43.97;100270.97;10371078;28;19940;-61
2022/06/16 07:03:28;;;;;;;;;;;;;;;23.17;43.34;100272.50;10361836;28;19969;-60
2022/06/16 07:08:29;;;;;;;;;;;;;;;23.17;43.55;100278.75;10366830;28;19925;-61
2022/06/16 07:13:31;;;;;;;;;;;;;;;23.24;43.18;100281.47;10363248;28;19929;-64
2022/06/16 07:18:32;;;;;;;;;;;;;;;23.41;43.12;100287.38;10376591;28;20011;-63
2022/06/16 07:23:33;;;;;;;;;;;;;;;23.54;43.10;100292.81;10381387;28;19996;-62
2022/06/16 07:28:35;;;;;;;;;;;;;;;23.62;42.72;100300.75;10385948;28;19933;-61
2022/06/16 07:33:36;;;;;;;;;;;;;;;23.85;42.96;100307.69;10385762;28;20032;-61
2022/06/16 07:38:38;;;;;;;;;;;;;;;24.03;42.73;100317.09;10378129;28;19988;-61
2022/06/16 07:43:39;;;;;;;;;;;;;;;24.05;41.90;100325.84;10382908;28;19964;-62
2022/06/16 07:48:41;;;;;;;;;;;;;;;24.26;41.32;100328.34;10383995;28;20400;-61
2022/06/16 07:53:42;;;;;;;;;;;;;;;24.17;41.69;100335.06;10377675;28;20569;-61
2022/06/16 07:58:43;;;;;;;;;;;;;;;24.39;41.05;100348.41;10377301;28;20052;-61
2022/06/16 08:03:46;;;;;;;;;;;;;;;24.50;41.00;100347.75;10385697;28;20418;-62
2022/06/16 08:08:48;;;;;;;;;;;;;;;24.58;40.31;100341.25;10389209;28;19940;-62
2022/06/16 08:13:50;;;;;;;;;;;;;;;24.77;40.01;100344.97;10392488;28;19933;-65
2022/06/16 08:18:52;;;;;;;;;;;;;;;24.94;40.23;100342.63;10404000;28;19936;-64
2022/06/16 08:23:53;;;;;;;;;;;;;;;25.12;38.75;100341.91;10382304;28;19945;-63
2022/06/16 08:28:55;;;;;;;;;;;;;;;25.32;38.94;100342.66;10372222;28;19956;-61
2022/06/16 08:33:56;;;;;;;;;;;;;;;25.14;38.55;100334.34;10378484;28;19951;-61
2022/06/16 08:38:57;;;;;;;;;;;;;;;25.22;38.52;100364.91;10378899;28;20293;-62
2022/06/16 08:44:00;;;;;;;;;;;;;;;25.24;39.04;100356.50;10391184;28;19971;-62
2022/06/16 08:49:21;;;;;;;;;;;;;;;25.57;37.97;100366.41;10379451;28;19921;-62
2022/06/16 08:54:39;;;;;;;;;;;;;;;25.51;37.87;100340.84;10380491;28;20148;-62
2022/06/16 08:59:49;;;;;;;;;;;;;;;25.63;37.84;100370.16;10376708;28;20701;-61
2022/06/16 09:04:54;;;;;;;;;;;;;;;25.91;39.00;100383.34;10379678;28;19956;-64
2022/06/16 09:10:17;;;;;;;;;;;;;;;25.91;38.81;100373.28;10366811;28;20562;-61
2022/06/16 09:15:33;;;;;;;;;;;;;;;25.77;37.88;100383.44;10357114;28;20525;-62
2022/06/16 09:20:40;;;;;;;;;;;;;;;25.84;38.20;100388.84;10390635;28;19940;-62
2022/06/16 09:25:41;;;;;;;;;;;;;;;26.38;37.01;100394.72;10384213;28;19999;-62
2022/06/16 09:30:47;;;;;;;;;;;;;;;26.59;37.02;100398.09;10363435;28;19936;-63
2022/06/16 09:35:54;;;;;;;;;;;;;;;26.95;35.73;100391.00;10353929;28;20031;-63
2022/06/16 09:40:58;;;;;;;;;;;;;;;27.24;35.17;100385.81;10364736;28;20302;-62
2022/06/16 09:46:01;;;;;;;;;;;;;;;27.43;34.94;100398.38;10359946;28;21591;-63
2022/06/16 09:51:11;;;;;;;;;;;;;;;27.65;34.25;100386.91;10363130;28;20244;-63
2022/06/16 09:56:21;;;;;;;;;;;;;;;28.00;33.25;100383.47;10377008;28;20187;-64
2022/06/16 10:01:24;;;;;;;;;;;;;;;28.02;32.69;100389.53;10371657;28;20348;-63
2022/06/16 10:06:48;;;;;;;;;;;;;;;27.73;31.98;100403.00;10357140;28;19963;-63
2022/06/16 10:11:59;;;;;;;;;;;;;;;28.16;32.57;100406.56;10356260;28;20598;-62
2022/06/16 10:17:02;;;;;;;;;;;;;;;28.50;31.94;100415.03;10350960;28;20213;-62
2022/06/16 10:22:04;;;;;;;;;;;;;;;28.81;31.36;100424.78;10350246;28;19933;-64
2022/06/16 10:27:08;;;;;;;;;;;;;;;28.95;30.26;100425.34;10354226;28;20095;-61
2022/06/16 10:32:15;;;;;;;;;;;;;;;29.07;30.13;100419.84;10350576;28;20076;-62
2022/06/16 10:37:27;;;;;;;;;;;;;;;29.44;29.74;100427.75;10348044;28;20563;-61
2022/06/16 10:42:40;;;;;;;;;;;;;;;29.54;29.13;100422.44;10348266;28;19940;-61
2022/06/16 10:47:47;;;;;;;;;;;;;;;29.77;29.59;100439.84;10345309;28;19974;-61
2022/06/16 10:52:53;;;;;;;;;;;;;;;29.68;29.48;100441.34;10348639;28;19932;-62
2022/06/16 10:57:58;;;;;;;;;;;;;;;29.87;28.95;100444.75;10346926;28;19940;-62
2022/06/16 11:03:06;;;;;;;;;;;;;;;30.01;29.44;100442.50;10342748;28;20414;-63
2022/06/16 11:08:12;;;;;;;;;;;;;;;30.26;28.86;100451.16;10342711;28;19933;-61
2022/06/16 11:13:36;;;;;;;;;;;;;;;30.40;28.82;100453.56;10344250;28;19936;-61
2022/06/16 11:18:38;;;;;;;;;;;;;;;30.05;29.30;100447.25;10348958;28;20451;-62
2022/06/16 11:23:43;;;;;;;;;;;;;;;30.27;29.06;100444.59;10352198;28;19956;-62
2022/06/16 11:28:52;;;;;;;;;;;;;;;30.09;28.97;100442.94;10346689;28;19933;-62
2022/06/16 11:34:08;;;;;;;;;;;;;;;30.49;28.56;100435.59;10350823;28;19929;-63
2022/06/16 11:39:18;;;;;;;;;;;;;;;30.74;27.91;100431.59;10350759;28;19964;-63
2022/06/16 11:44:33;;;;;;;;;;;;;;;30.76;28.21;100432.16;10352282;28;19929;-61
2022/06/16 11:49:38;;;;;;;;;;;;;;;30.58;27.83;100417.66;10350336;28;19933;-62
2022/06/16 11:54:40;;;;;;;;;;;;;;;30.77;26.77;100414.59;10359598;28;19929;-61
2022/06/16 11:59:59;;;;;;;;;;;;;;;30.77;25.75;100409.09;10350873;28;19954;-62
2022/06/16 12:05:19;;;;;;;;;;;;;;;30.90;24.33;100402.41;10352672;28;20596;-62
2022/06/16 12:10:37;;;;;;;;;;;;;;;30.99;25.19;100396.22;10347618;28;20554;-62
2022/06/16 12:15:42;;;;;;;;;;;;;;;30.82;23.68;100407.25;10352420;28;19935;-62
2022/06/16 12:20:46;;;;;;;;;;;;;;;30.84;24.19;100405.06;10365071;28;20454;-62
2022/06/16 12:26:09;;;;;;;;;;;;;;;30.63;23.12;100387.50;10365931;28;19933;-62
2022/06/16 12:31:13;;;;;;;;;;;;;;;30.55;23.45;100411.81;10353507;28;19933;-62
2022/06/16 12:36:22;;;;;;;;;;;;;;;30.72;23.52;100406.28;10357129;28;19936;-62
2022/06/16 12:41:45;;;;;;;;;;;;;;;30.81;21.40;100405.59;10353991;28;20755;-62
2022/06/16 12:46:54;;;;;;;;;;;;;;;30.66;22.63;100413.63;10368487;28;19935;-62
2022/06/16 12:51:59;;;;;;;;;;;;;;;30.74;21.35;100406.84;10354733;28;20156;-61
2022/06/16 12:57:03;;;;;;;;;;;;;;;30.63;20.22;100406.72;10366422;28;20138;-60
2022/06/16 13:02:06;;;;;;;;;;;;;;;30.56;20.13;100403.31;10361857;28;20012;-61
2022/06/16 13:07:12;;;;;;;;;;;;;;;30.33;20.46;100402.41;10354012;28;20114;-62
2022/06/16 13:12:21;;;;;;;;;;;;;;;30.33;20.33;100410.63;10369385;28;19929;-61
2022/06/16 13:17:26;;;;;;;;;;;;;;;30.31;19.15;100412.81;10350432;28;19929;-62
2022/06/16 13:22:35;;;;;;;;;;;;;;;30.13;20.47;100411.16;10354589;28;20063;-63
2022/06/16 13:27:39;;;;;;;;;;;;;;;30.24;20.50;100423.13;10352750;28;19933;-62
2022/06/16 13:32:59;;;;;;;;;;;;;;;30.21;19.86;100418.16;10351391;28;20639;-63
2022/06/16 13:38:03;;;;;;;;;;;;;;;30.14;20.32;100412.00;10353271;28;20352;-62
2022/06/16 13:43:04;;;;;;;;;;;;;;;30.05;20.34;100414.31;10347497;28;20022;-61
2022/06/16 13:48:06;;;;;;;;;;;;;;;30.10;21.29;100405.31;10355404;28;19933;-63
2022/06/16 13:53:07;;;;;;;;;;;;;;;30.07;20.63;100408.56;10353124;28;19929;-64
2022/06/16 13:58:15;;;;;;;;;;;;;;;29.95;21.06;100406.75;10367858;28;19933;-62
2022/06/16 14:03:19;;;;;;;;;;;;;;;29.86;21.91;100415.63;10350545;28;19939;-63
2022/06/16 14:08:21;;;;;;;;;;;;;;;29.61;21.60;100409.41;10351735;28;19994;-64
2022/06/16 14:13:36;;;;;;;;;;;;;;;29.64;21.84;100412.75;10346219;28;20371;-63
2022/06/16 14:19:01;;;;;;;;;;;;;;;29.48;21.54;100426.16;10352513;28;19936;-62
2022/06/16 14:24:11;;;;;;;;;;;;;;;29.43;20.53;100423.34;10349177;28;19982;-62
2022/06/16 14:29:15;;;;;;;;;;;;;;;29.22;21.01;100422.94;10346026;28;19994;-63
2022/06/16 14:34:28;;;;;;;;;;;;;;;29.19;20.94;100426.13;10345759;28;19933;-61
2022/06/16 14:39:32;;;;;;;;;;;;;;;29.22;20.68;100433.88;10348521;28;20019;-61
2022/06/16 14:44:38;;;;;;;;;;;;;;;29.14;20.43;100431.50;10345948;28;19933;-61
2022/06/16 14:49:52;;;;;;;;;;;;;;;29.24;20.60;100431.72;10364442;28;19963;-60
2022/06/16 14:54:55;;;;;;;;;;;;;;;29.11;20.79;100432.00;10350751;28;21371;-64
2022/06/16 15:00:00;;;;;;;;;;;;;;;29.10;20.81;100435.81;10348237;28;19933;-62
2022/06/16 15:11:28;;;;;;;2.47;0.80;;;;;;;28.86;21.08;100437.75;10331251;27;20396;-56
2022/06/16 15:21:57;;;;;;;0.90;0.70;;;;;;;28.54;20.97;100432.66;10275374;28;20184;-55
2022/06/16 15:26:59;;;;;;;1.05;0.60;;;;;;;28.54;20.70;100458.13;10325571;28;20475;-57
2022/06/16 15:32:03;;;;;;;1.73;0.65;;;;;;;28.48;20.72;100460.94;10328333;28;20076;-63
2022/06/16 15:37:06;;;;;;;4.15;1.30;;;;;;;28.52;21.16;100464.88;10332158;28;20080;-63
2022/06/16 15:42:19;;;;;;;2.33;0.73;;;;;;;28.52;20.50;100460.22;10324200;28;20565;-59
2022/06/16 15:47:23;;;;;;;;;;;;;;;28.59;20.42;100468.34;10321767;28;20045;-58
2022/06/16 15:52:43;;;;;;;1.98;1.13;;;;;;;28.52;20.66;100476.66;10330313;28;20284;-59
2022/06/16 15:57:46;;;;;;;1.20;0.85;;;;;;;28.53;20.99;100470.13;10322289;28;20046;-58
2022/06/16 16:02:48;;;;;;;;;;;;;;;28.48;20.23;100467.28;10320822;28;20983;-58
2022/06/16 16:07:51;;;;;;;1.80;0.65;;;;;;;28.44;21.08;100454.31;10330087;28;19925;-60
2022/06/16 16:13:09;;;;;;;;;;;;;;;28.38;20.62;100461.56;10332295;28;20045;-58
2022/06/16 16:18:22;;;;;;;2.67;0.85;;;;;;;28.30;20.98;100461.88;10328644;28;20027;-59
2022/06/16 16:23:28;;;;;;;1.35;0.60;;;;;;;28.29;21.10;100465.72;10302641;28;20053;-58
2022/06/16 16:28:33;;;;;;;1.08;0.55;;;;;;;28.23;20.64;100469.41;10305518;28;20042;-59
2022/06/16 16:33:36;;;;;;;0.93;0.50;;;;;;;28.16;20.40;100467.56;10300321;28;20188;-58
2022/06/16 16:38:50;;;;;;;1.02;0.60;;;;;;;28.07;21.36;100476.38;10305645;28;20147;-59
2022/06/16 16:43:55;;;;;;;1.60;0.80;;;;;;;27.99;21.60;100455.66;10277119;28;20062;-59
2022/06/16 16:48:58;;;;;;;0.95;0.45;;;;;;;28.01;22.00;100461.72;10265242;28;20061;-59
2022/06/16 16:54:09;;;;;;;1.23;0.80;;;;;;;27.91;21.88;100470.47;10263958;28;20090;-59
2022/06/16 16:59:20;;;;;;;1.63;1.00;;;;;;;27.87;22.58;100483.78;10264428;28;20097;-59
2022/06/16 17:04:26;;;;;;;1.45;0.73;;;;;;;27.81;24.74;100484.69;10253228;28;20065;-59
2022/06/16 17:09:27;;;;;;;3.05;0.77;;;;;;;27.73;24.99;100498.72;10257717;28;20062;-57
2022/06/16 17:14:35;;;;;;;2.03;1.02;;;;;;;27.61;25.33;100489.59;10249925;28;20127;-58
2022/06/16 17:19:48;;;;;;;1.50;0.70;;;;;;;27.60;25.62;100504.34;10250715;28;21156;-59
2022/06/16 17:24:50;;;;;;;3.20;1.20;;;;;;;27.47;25.86;100517.13;10284598;28;20060;-59
2022/06/16 17:29:52;;;;;;;2.78;0.63;;;;;;;27.33;25.96;100532.00;10286221;28;20107;-59
2022/06/16 17:34:57;;;;;;;1.50;0.73;;;;;;;27.18;26.12;100529.63;10288396;28;20076;-58
2022/06/16 17:39:59;;;;;;;2.53;0.95;;;;;;;27.16;25.92;100538.03;10293043;28;20528;-62
2022/06/16 17:45:00;;;;;;;1.63;0.73;;;;;;;27.03;25.75;100543.63;10298027;28;20057;-58
2022/06/16 17:50:02;;;;;;;1.50;0.63;;;;;;;26.94;25.59;100545.00;10302437;28;20073;-59
2022/06/16 18:00:36;;;;;;;1.75;0.65;;;;;;;26.52;25.57;100548.25;10297047;28;20482;-58
2022/06/16 18:05:38;;;;;;;1.08;0.43;;;;;;;26.48;26.13;100557.13;10297779;28;20058;-58
2022/06/16 18:10:40;;;;;;;1.23;0.50;;;;;;;26.44;25.77;100552.09;10299273;28;20052;-59
2022/06/16 18:15:41;;;;;;;0.88;0.50;;;;;;;26.12;25.55;100499.44;10297175;28;20064;-59
2022/06/16 18:20:46;;;;;;;0.85;0.30;;;;;;;26.23;25.92;100536.09;10300262;28;20126;-58
2022/06/16 18:25:50;;;;;;;1.90;0.38;;;;;;;26.06;25.19;100539.34;10301055;28;20235;-59
2022/06/16 18:30:52;;;;;;;5.05;1.92;;;;;;;25.87;27.47;100543.00;10297197;28;20049;-53
2022/06/16 18:35:54;;;;;;;3.15;1.40;;;;;;;25.77;28.30;100549.72;10299032;28;20081;-53
2022/06/16 18:40:55;;;;;;;1.42;0.40;;;;;;;25.66;27.43;100555.06;10295431;28;20050;-59
2022/06/16 18:45:57;;;;;;;0.93;0.30;;;;;;;25.63;26.86;100559.03;10294133;28;20170;-58
2022/06/16 18:50:58;;;;;;;1.52;0.20;;;;;;;25.54;26.94;100576.69;10293165;28;20822;-58
2022/06/16 18:56:03;;;;;;;0.73;0.20;;;;;;;25.48;26.95;100574.81;10292327;28;20045;-59
2022/06/16 19:01:08;;;;;;;0.65;0.35;;;;;;;25.45;27.26;100575.25;10298453;28;20140;-58
2022/06/16 19:06:12;;;;;;;2.35;0.40;;;;;;;25.38;27.60;100581.53;10296515;28;20057;-58
2022/06/16 19:11:17;;;;;;;0.90;0.70;;;;;;;25.26;28.06;100582.38;10294110;28;20049;-58
2022/06/16 19:16:18;;;;;;;0.65;0.28;;;;;;;25.02;29.17;100577.38;10271271;28;20441;-59
2022/06/16 19:21:23;;;;;;;1.63;0.50;;;;;;;24.86;29.09;100588.69;10292907;28;20046;-58
2022/06/16 19:26:26;;;;;;;1.98;0.50;;;;;;;24.82;30.11;100598.34;10292729;28;20418;-58
2022/06/16 19:31:30;;;;;;;2.53;0.52;;;;;;;24.78;29.83;100610.69;10290354;28;20140;-58
2022/06/16 19:36:35;;;;;;;1.40;1.10;;;;;;;24.62;29.95;100620.09;10289569;28;20050;-58
2022/06/16 19:41:38;;;;;;;2.00;0.40;;;;;;;24.53;31.20;100633.88;10290526;28;20501;-58
2022/06/16 19:52:03;;;;;;;2.15;0.43;;;;;;;24.17;31.23;100661.41;10291213;28;20582;-59
2022/06/16 19:57:05;;;;;;;1.33;0.32;;;;;;;24.21;31.20;100678.97;10296611;28;20105;-59
2022/06/16 20:02:08;;;;;;;2.23;0.47;;;;;;;24.08;31.59;100696.06;10293992;28;20710;-59
2022/06/16 20:07:12;;;;;;;1.00;0.70;;;;;;;24.07;36.72;100715.31;10295005;28;20093;-56
2022/06/16 20:12:14;;;;;;;3.78;1.00;;;;;;;23.98;33.62;100728.22;10290525;28;20070;-54
2022/06/16 20:17:16;;;;;;;2.58;1.20;;;;;;;23.90;33.09;100734.66;10299247;28;20551;-54
2022/06/16 20:22:17;;;;;;;1.65;0.60;;;;;;;23.63;33.43;100709.16;10299484;28;20141;-58
2022/06/16 20:27:19;;;;;;;2.80;0.60;;;;;;;23.71;33.69;100732.63;10299428;28;20167;-53
2022/06/16 20:32:21;;;;;;;4.13;0.80;;;;;;;23.62;34.56;100749.06;10281314;28;20046;-54
2022/06/16 20:37:23;;;;;;;1.77;0.52;;;;;;;23.53;34.15;100754.88;10292027;28;20053;-53
2022/06/16 20:42:24;;;;;;;1.83;0.88;;;;;;;23.37;35.24;100753.25;10300261;28;20069;-52
2022/06/16 20:47:28;;;;;;;1.80;0.90;;;;;;;23.35;35.19;100739.88;10299028;28;20161;-52
2022/06/16 20:52:30;;;;;;;1.60;0.90;;;;;;;23.33;35.76;100762.81;10296058;28;20141;-54
2022/06/16 21:02:53;;;;;;;2.65;0.90;;;;;;;23.04;36.41;100761.91;10294482;28;20081;-52
2022/06/16 21:07:54;;;;;;;2.80;0.88;;;;;;;22.96;36.77;100784.59;10293336;28;20689;-54
2022/06/16 21:12:56;;;;;;;2.08;0.93;;;;;;;22.95;36.63;100774.75;10255951;28;20062;-52
2022/06/16 21:17:59;;;;;;;2.45;0.82;;;;;;;22.84;37.15;100770.66;10293550;28;20110;-52
2022/06/16 21:23:03;;;;;;;1.73;0.93;;;;;;;22.75;37.28;100788.09;10290763;28;20053;-57
2022/06/16 21:28:04;;;;;;;1.92;0.90;;;;;;;22.67;37.35;100797.19;10292937;28;20710;-53
2022/06/16 21:33:07;;;;;;;1.88;0.90;;;;;;;22.57;37.69;100802.91;10289840;28;20145;-52
2022/06/16 21:38:12;;;;;;;2.78;1.17;;;;;;;22.32;37.96;100788.81;10287484;28;20058;-53
2022/06/16 21:43:13;;;;;;;2.72;0.90;;;;;;;22.20;38.37;100793.00;10291512;28;20109;-52
2022/06/16 21:48:18;;;;;;;1.33;0.82;;;;;;;22.23;38.13;100798.91;10286630;28;20062;-52
2022/06/16 21:53:20;;;;;;;2.70;1.50;;;;;;;22.14;38.47;100800.00;10284714;28;20044;-52
2022/06/16 21:58:23;;;;;;;1.65;0.95;;;;;;;22.12;38.37;100807.47;10292464;28;20136;-53
2022/06/16 22:03:27;;;;;;;2.57;0.90;;;;;;;22.04;38.59;100804.88;10278629;23;20120;-52
2022/06/16 22:08:29;;;;;;;1.60;0.88;;;;;;;21.95;38.24;100805.97;10223796;28;20453;-52
2022/06/16 22:13:32;;;;;;;1.98;1.08;;;;;;;21.98;39.63;100816.44;10228676;28;20109;-52
2022/06/16 22:18:36;;;;;;;2.55;1.00;;;;;;;21.87;38.48;100818.59;10226661;28;20709;-52
2022/06/16 22:23:39;;;;;;;2.33;1.10;;;;;;;21.89;39.21;100819.22;10231341;28;20138;-52
2022/06/16 22:28:45;;;;;;;;;;;;;;;21.91;39.12;100812.78;10224187;28;20120;-58
2022/06/16 22:33:48;;;;;;;1.38;1.17;;;;;;;21.90;39.27;100822.78;10222753;28;20122;-52
2022/06/16 22:38:49;;;;;;;2.58;1.10;;;;;;;21.87;39.35;100837.56;10227794;28;20109;-52
2022/06/16 22:43:56;;;;;;;2.63;1.10;;;;;;;21.80;39.40;100839.31;10209922;28;20142;-55
2022/06/16 22:48:57;;;;;;;1.30;0.95;;;;;;;21.79;39.90;100847.63;10221890;28;20050;-52
2022/06/16 22:59:19;;;;;;;2.45;1.05;;;;;;;21.64;39.91;100839.44;10228441;28;20121;-52
2022/06/16 23:04:21;;;;;;;2.20;0.90;;;;;;;21.54;40.03;100831.56;10224610;28;20059;-54
2022/06/16 23:09:31;;;;;;;1.58;0.95;;;;;;;21.54;40.32;100850.50;10226534;28;20067;-52
2022/06/16 23:14:33;;;;;;;2.00;1.20;;;;;;;21.50;40.23;100862.75;10217665;28;20134;-51
2022/06/16 23:19:35;;;;;;;2.25;1.20;;;;;;;21.37;40.36;100879.56;10228951;28;20070;-53
2022/06/16 23:24:36;;;;;;;2.72;1.30;;;;;;;21.25;41.53;100872.88;10224301;28;20721;-52
2022/06/16 23:29:38;;;;;;;2.10;0.98;;;;;;;21.19;40.86;100882.53;10231698;28;21034;-52
2022/06/16 23:34:42;;;;;;;1.75;1.20;;;;;;;21.11;41.14;100886.13;10226146;28;20137;-53
2022/06/16 23:39:44;;;;;;;1.35;1.15;;;;;;;21.10;41.10;100887.16;10235933;28;20121;-52
2022/06/16 23:44:45;;;;;;;1.60;0.90;;;;;;;21.08;41.33;100883.78;10239588;28;20054;-52
2022/06/16 23:49:48;;;;;;;1.42;0.88;;;;;;;21.09;42.20;100881.91;10246340;28;20109;-52
2022/06/16 23:54:53;;;;;;;2.72;1.20;;;;;;;21.04;42.44;100887.88;10235896;28;20078;-52
2022/06/16 23:59:54;;;;;;;2.00;1.05;;;;;;;20.76;42.19;100874.81;10232261;28;20074;-53
